createdAt,value
2022-08-17T00:01:30.760Z,22.93
2022-08-17T00:04:19.399Z,22.94
2022-08-17T00:06:46.233Z,22.98
2022-08-17T00:09:19.036Z,22.94
2022-08-17T00:12:41.808Z,22.90
2022-08-17T00:14:35.221Z,22.85
2022-08-17T00:17:03.750Z,22.85
2022-08-17T00:19:32.458Z,22.69
2022-08-17T00:22:29.849Z,22.65
2022-08-17T00:24:47.169Z,22.57
2022-08-17T00:27:13.687Z,22.53
2022-08-17T00:29:40.511Z,22.58
2022-08-17T00:33:13.740Z,22.74
2022-08-17T00:34:53.693Z,22.84
2022-08-17T00:37:20.153Z,22.77
2022-08-17T00:39:46.665Z,22.83
2022-08-17T00:42:18.642Z,22.72
2022-08-17T00:44:46.081Z,22.68
2022-08-17T00:47:12.566Z,22.68
2022-08-17T00:49:39.118Z,22.68
2022-08-17T00:52:15.380Z,22.69
2022-08-17T00:54:44.791Z,22.73
2022-08-17T00:57:14.808Z,22.75
2022-08-17T00:59:47.163Z,22.66
2022-08-17T01:02:29.992Z,22.70
2022-08-17T01:05:01.057Z,22.72
2022-08-17T01:07:27.757Z,22.58
2022-08-17T01:09:54.801Z,22.53
2022-08-17T01:12:21.538Z,22.50
2022-08-17T01:14:48.576Z,22.54
2022-08-17T01:17:15.208Z,22.62
2022-08-17T01:19:42.676Z,22.69
2022-08-17T01:22:09.105Z,22.60
2022-08-17T01:24:39.718Z,22.60
2022-08-17T01:27:10.256Z,22.60
2022-08-17T01:29:41.109Z,22.56
2022-08-17T01:32:09.087Z,22.52
2022-08-17T01:34:42.421Z,22.59
2022-08-17T01:37:11.338Z,22.47
2022-08-17T01:39:50.088Z,22.49
2022-08-17T01:42:17.565Z,22.37
2022-08-17T01:44:44.388Z,22.33
2022-08-17T01:47:10.874Z,22.27
2022-08-17T01:49:37.395Z,22.43
2022-08-17T01:52:09.697Z,22.42
2022-08-17T01:54:39.728Z,22.44
2022-08-17T01:57:06.907Z,22.54
2022-08-17T01:59:33.906Z,22.58
2022-08-17T02:02:00.537Z,22.59
2022-08-17T02:04:27.220Z,22.63
2022-08-17T02:06:54.675Z,22.59
2022-08-17T02:09:26.339Z,22.62
2022-08-17T02:11:58.415Z,22.64
2022-08-17T02:14:25.800Z,22.53
2022-08-17T02:16:52.906Z,22.59
2022-08-17T02:19:20.399Z,22.52
2022-08-17T02:21:49.157Z,22.49
2022-08-17T02:24:59.844Z,22.49
2022-08-17T02:27:15.453Z,22.44
2022-08-17T02:29:41.966Z,22.42
2022-08-17T02:32:28.216Z,22.40
2022-08-17T02:34:56.711Z,22.41
2022-08-17T02:37:23.508Z,22.43
2022-08-17T02:39:49.973Z,22.38
2022-08-17T02:42:16.526Z,22.37
2022-08-17T02:44:43.543Z,22.18
2022-08-17T02:47:11.108Z,22.17
2022-08-17T02:49:38.184Z,22.10
2022-08-17T02:52:06.630Z,21.99
2022-08-17T02:54:41.566Z,21.88
2022-08-17T02:57:09.878Z,21.85
2022-08-17T02:59:37.149Z,21.83
2022-08-17T03:02:06.171Z,21.77
2022-08-17T03:04:35.193Z,21.83
2022-08-17T03:07:02.404Z,21.87
2022-08-17T03:09:28.897Z,21.84
2022-08-17T03:11:56.159Z,21.78
2022-08-17T03:14:26.269Z,21.68
2022-08-17T03:16:52.902Z,21.70
2022-08-17T03:19:19.329Z,21.72
2022-08-17T03:21:45.782Z,21.70
2022-08-17T03:24:12.602Z,21.74
2022-08-17T03:26:39.134Z,21.70
2022-08-17T03:29:05.623Z,21.60
2022-08-17T03:31:32.386Z,21.62
2022-08-17T03:34:00.995Z,21.54
2022-08-17T03:36:27.483Z,21.20
2022-08-17T03:38:54.054Z,21.32
2022-08-17T03:41:21.358Z,21.45
2022-08-17T03:43:47.912Z,21.37
2022-08-17T03:46:35.244Z,21.38
2022-08-17T03:49:26.600Z,21.39
2022-08-17T03:52:13.058Z,21.47
2022-08-17T03:54:59.351Z,21.49
2022-08-17T03:57:26.289Z,21.30
2022-08-17T03:59:53.917Z,21.20
2022-08-17T04:02:26.884Z,21.26
2022-08-17T04:04:54.139Z,21.12
2022-08-17T04:07:23.308Z,21.25
2022-08-17T04:09:50.173Z,21.25
2022-08-17T04:12:18.737Z,21.29
2022-08-17T04:14:53.169Z,21.24
2022-08-17T04:17:23.415Z,21.23
2022-08-17T04:19:49.979Z,21.28
2022-08-17T04:22:33.039Z,21.35
2022-08-17T04:25:16.144Z,21.33
2022-08-17T04:27:42.614Z,21.31
2022-08-17T04:30:09.907Z,21.39
2022-08-17T04:33:05.087Z,21.14
2022-08-17T04:35:41.127Z,21.01
2022-08-17T04:38:10.246Z,21.03
2022-08-17T04:40:55.803Z,20.97
2022-08-17T04:43:24.117Z,20.94
2022-08-17T04:45:55.296Z,20.97
2022-08-17T04:48:29.782Z,20.92
2022-08-17T04:51:06.431Z,21.08
2022-08-17T04:53:32.977Z,21.04
2022-08-17T04:55:59.458Z,21.22
2022-08-17T04:58:26.137Z,21.21
2022-08-17T05:00:53.248Z,21.16
2022-08-17T05:03:19.839Z,21.26
2022-08-17T05:05:49.581Z,21.27
2022-08-17T05:08:18.836Z,21.22
2022-08-17T05:10:46.856Z,21.17
2022-08-17T05:13:17.904Z,21.08
2022-08-17T05:15:47.654Z,21.08
2022-08-17T05:18:15.099Z,21.04
2022-08-17T05:20:41.692Z,20.97
2022-08-17T05:23:11.571Z,21.03
2022-08-17T05:25:47.580Z,21.12
2022-08-17T05:28:16.128Z,21.08
2022-08-17T05:30:43.600Z,21.08
2022-08-17T05:33:13.408Z,21.09
2022-08-17T05:35:43.891Z,20.95
2022-08-17T05:38:10.906Z,21.00
2022-08-17T05:40:38.304Z,20.92
2022-08-17T05:43:14.534Z,21.11
2022-08-17T05:46:00.242Z,21.16
2022-08-17T05:48:39.086Z,21.30
2022-08-17T05:51:32.929Z,21.28
2022-08-17T05:54:17.764Z,21.54
2022-08-17T05:57:03.835Z,21.60
2022-08-17T05:59:43.495Z,21.46
2022-08-17T06:02:20.831Z,21.49
2022-08-17T06:04:59.425Z,21.55
2022-08-17T06:07:41.498Z,21.61
2022-08-17T06:10:35.371Z,21.80
2022-08-17T06:13:15.596Z,21.90
2022-08-17T06:15:57.063Z,22.13
2022-08-17T06:18:28.607Z,22.42
2022-08-17T06:21:00.368Z,23.04
2022-08-17T06:23:31.122Z,23.34
2022-08-17T06:26:03.751Z,23.46
2022-08-17T06:28:41.265Z,23.51
2022-08-17T06:31:29.245Z,23.51
2022-08-17T06:33:57.913Z,23.53
2022-08-17T06:36:48.218Z,23.53
2022-08-17T06:40:02.559Z,23.61
2022-08-17T06:43:05.545Z,23.87
2022-08-17T06:45:43.397Z,23.92
2022-08-17T06:48:15.423Z,23.82
2022-08-17T06:50:59.891Z,23.69
2022-08-17T06:53:35.490Z,23.67
2022-08-17T06:56:08.839Z,23.64
2022-08-17T06:58:40.144Z,23.52
2022-08-17T07:01:18.243Z,23.59
2022-08-17T07:03:54.520Z,24.08
2022-08-17T07:06:24.071Z,24.71
2022-08-17T07:09:15.271Z,25.85
2022-08-17T07:12:01.946Z,26.25
2022-08-17T07:14:37.717Z,25.95
2022-08-17T07:17:09.426Z,25.44
2022-08-17T07:19:44.044Z,25.24
2022-08-17T07:22:57.874Z,24.97
2022-08-17T07:25:27.507Z,24.98
2022-08-17T07:27:59.669Z,25.32
2022-08-17T07:30:29.990Z,26.33
2022-08-17T07:33:27.067Z,26.43
2022-08-17T07:35:54.012Z,27.04
2022-08-17T07:38:28.246Z,27.80
2022-08-17T07:40:58.007Z,28.12
2022-08-17T07:43:46.483Z,28.53
2022-08-17T07:46:40.931Z,28.81
2022-08-17T07:49:10.224Z,28.97
2022-08-17T07:51:44.179Z,28.43
2022-08-17T07:54:20.306Z,27.87
2022-08-17T07:57:00.786Z,27.70
2022-08-17T07:59:43.419Z,27.99
2022-08-17T08:02:25.770Z,28.85
2022-08-17T08:05:12.879Z,28.54
2022-08-17T08:07:48.144Z,28.43
2022-08-17T08:10:36.002Z,28.36
2022-08-17T08:13:14.049Z,28.47
2022-08-17T08:15:53.691Z,28.42
2022-08-17T08:18:55.529Z,29.04
2022-08-17T08:21:44.870Z,29.20
2022-08-17T08:24:30.913Z,28.73
2022-08-17T08:27:30.050Z,29.90
2022-08-17T08:30:14.389Z,30.45
2022-08-17T08:33:17.180Z,29.79
2022-08-17T08:35:55.065Z,29.39
2022-08-17T08:38:53.517Z,29.17
2022-08-17T08:41:44.905Z,28.22
2022-08-17T08:45:00.883Z,27.84
2022-08-17T08:47:53.953Z,27.30
2022-08-17T08:50:42.689Z,26.50
2022-08-17T08:53:11.939Z,25.95
2022-08-17T08:55:51.838Z,25.70
2022-08-17T08:58:32.022Z,25.47
2022-08-17T09:01:18.340Z,24.99
2022-08-17T09:04:21.444Z,24.46
2022-08-17T09:07:18.938Z,23.84
2022-08-17T09:10:02.962Z,23.38
2022-08-17T09:13:25.074Z,23.30
2022-08-17T09:15:59.235Z,23.50
2022-08-17T09:18:59.867Z,23.72
2022-08-17T09:21:48.392Z,23.66
2022-08-17T09:24:41.797Z,24.33
2022-08-17T09:27:14.272Z,26.64
2022-08-17T09:29:49.139Z,29.13
2022-08-17T09:32:27.397Z,28.49
2022-08-17T09:35:00.202Z,28.11
2022-08-17T09:37:53.378Z,26.38
2022-08-17T09:40:19.772Z,26.31
2022-08-17T09:43:14.173Z,25.72
2022-08-17T09:45:57.220Z,25.64
2022-08-17T09:48:50.387Z,25.43
2022-08-17T09:51:34.867Z,25.53
2022-08-17T09:54:35.008Z,25.57
2022-08-17T09:57:27.924Z,25.57
2022-08-17T10:00:13.305Z,27.09
2022-08-17T10:03:05.357Z,29.18
2022-08-17T10:05:47.052Z,30.78
2022-08-17T10:08:47.939Z,30.58
2022-08-17T10:11:20.242Z,31.01
2022-08-17T10:14:02.267Z,30.91
2022-08-17T10:17:01.810Z,31.18
2022-08-17T10:19:34.731Z,31.35
2022-08-17T10:22:41.399Z,32.96
2022-08-17T10:25:42.851Z,31.95
2022-08-17T10:28:25.889Z,31.30
2022-08-17T10:31:17.021Z,32.24
2022-08-17T10:34:25.180Z,34.06
2022-08-17T10:37:09.020Z,33.02
2022-08-17T10:39:53.177Z,32.58
2022-08-17T10:42:32.539Z,33.48
2022-08-17T10:45:06.848Z,32.68
2022-08-17T10:48:04.785Z,34.01
2022-08-17T10:50:59.198Z,34.56
2022-08-17T10:53:31.755Z,34.51
2022-08-17T10:56:18.713Z,32.08
2022-08-17T10:58:50.714Z,33.54
2022-08-17T11:01:18.156Z,33.38
2022-08-17T11:03:54.846Z,34.83
2022-08-17T11:06:32.076Z,33.37
2022-08-17T11:09:15.418Z,32.69
2022-08-17T11:11:51.831Z,32.29
2022-08-17T11:14:39.950Z,32.85
2022-08-17T11:17:25.608Z,32.92
2022-08-17T11:20:05.930Z,32.67
2022-08-17T11:22:57.849Z,33.77
2022-08-17T11:25:36.075Z,35.30
2022-08-17T11:28:13.703Z,36.01
2022-08-17T11:30:47.029Z,37.19
2022-08-17T11:33:30.395Z,38.04
2022-08-17T11:36:31.682Z,36.18
2022-08-17T11:39:25.623Z,35.20
2022-08-17T11:42:25.433Z,34.36
2022-08-17T11:45:03.279Z,33.03
2022-08-17T11:48:26.546Z,32.85
2022-08-17T11:51:25.417Z,32.27
2022-08-17T11:54:14.699Z,33.08
2022-08-17T11:56:51.785Z,33.13
2022-08-17T11:59:32.668Z,33.33
2022-08-17T12:02:01.897Z,33.01
2022-08-17T12:04:29.925Z,32.61
2022-08-17T12:07:10.170Z,33.33
2022-08-17T12:09:43.946Z,32.87
2022-08-17T12:12:14.677Z,34.37
2022-08-17T12:15:11.337Z,34.85
2022-08-17T12:17:41.207Z,34.33
2022-08-17T12:20:32.036Z,34.38
2022-08-17T12:23:07.064Z,33.50
2022-08-17T12:25:44.401Z,35.17
2022-08-17T12:28:43.968Z,34.26
2022-08-17T12:31:21.621Z,34.44
2022-08-17T12:33:50.007Z,35.14
2022-08-17T12:36:21.890Z,35.18
2022-08-17T12:39:14.419Z,35.76
2022-08-17T12:41:45.121Z,35.56
2022-08-17T12:44:12.172Z,34.88
2022-08-17T12:47:21.908Z,35.18
2022-08-17T12:49:51.735Z,35.29
2022-08-17T12:52:27.118Z,35.31
2022-08-17T12:54:59.397Z,34.51
2022-08-17T12:57:32.713Z,33.94
2022-08-17T13:00:26.815Z,35.60
2022-08-17T13:03:06.031Z,35.43
2022-08-17T13:05:38.818Z,36.11
2022-08-17T13:08:32.321Z,36.01
2022-08-17T13:11:03.593Z,35.65
2022-08-17T13:13:33.188Z,36.90
2022-08-17T13:16:01.439Z,36.94
2022-08-17T13:18:39.072Z,36.90
2022-08-17T13:21:28.110Z,35.74
2022-08-17T13:24:10.811Z,36.83
2022-08-17T13:26:44.271Z,36.74
2022-08-17T13:29:35.026Z,35.35
2022-08-17T13:32:05.097Z,36.07
2022-08-17T13:35:15.226Z,35.92
2022-08-17T13:37:41.005Z,35.86
2022-08-17T13:40:09.271Z,35.27
2022-08-17T13:42:55.462Z,34.81
2022-08-17T13:45:35.175Z,33.91
2022-08-17T13:48:14.468Z,34.08
2022-08-17T13:50:54.689Z,32.60
2022-08-17T13:53:51.615Z,32.25
2022-08-17T13:56:33.436Z,31.91
2022-08-17T13:59:11.236Z,31.65
2022-08-17T14:01:40.427Z,31.22
2022-08-17T14:04:13.069Z,30.42
2022-08-17T14:07:13.373Z,30.28
2022-08-17T14:09:55.229Z,30.08
2022-08-17T14:12:27.427Z,29.75
2022-08-17T14:14:56.303Z,29.37
2022-08-17T14:17:24.570Z,29.08
2022-08-17T14:19:51.554Z,28.77
2022-08-17T14:22:26.937Z,28.47
2022-08-17T14:24:53.815Z,28.51
2022-08-17T14:27:21.748Z,28.38
2022-08-17T14:29:48.971Z,27.96
2022-08-17T14:32:28.435Z,27.48
2022-08-17T14:34:57.753Z,26.22
2022-08-17T14:37:27.844Z,25.05
2022-08-17T14:39:56.858Z,24.19
2022-08-17T14:42:26.338Z,22.67
2022-08-17T14:44:54.299Z,22.10
2022-08-17T14:47:21.453Z,21.97
2022-08-17T14:49:48.844Z,21.34
2022-08-17T14:52:21.608Z,21.85
2022-08-17T14:54:51.304Z,22.21
2022-08-17T14:57:33.499Z,22.26
2022-08-17T15:00:01.951Z,22.40
2022-08-17T15:02:30.675Z,22.15
2022-08-17T15:05:06.286Z,22.16
2022-08-17T15:07:32.811Z,21.94
2022-08-17T15:10:01.423Z,21.55
2022-08-17T15:12:33.190Z,21.83
2022-08-17T15:15:01.095Z,22.13
2022-08-17T15:17:44.552Z,22.24
2022-08-17T15:20:20.767Z,22.39
2022-08-17T15:22:58.878Z,22.27
2022-08-17T15:25:28.187Z,21.82
2022-08-17T15:27:55.844Z,21.66
2022-08-17T15:30:25.735Z,22.06
2022-08-17T15:32:55.289Z,22.42
2022-08-17T15:35:29.414Z,22.64
2022-08-17T15:38:06.111Z,22.73
2022-08-17T15:40:39.009Z,22.66
2022-08-17T15:43:11.989Z,22.53
2022-08-17T15:45:38.381Z,22.55
2022-08-17T15:48:05.113Z,22.57
2022-08-17T15:50:31.618Z,22.81
2022-08-17T15:53:00.108Z,22.99
2022-08-17T15:55:28.697Z,23.07
2022-08-17T15:57:55.238Z,22.98
2022-08-17T16:00:24.031Z,23.17
2022-08-17T16:03:44.224Z,23.32
2022-08-17T16:05:37.391Z,23.48
2022-08-17T16:08:07.034Z,23.47
2022-08-17T16:10:35.257Z,23.64
2022-08-17T16:13:03.863Z,23.75
2022-08-17T16:15:33.654Z,23.75
2022-08-17T16:18:00.185Z,23.71
2022-08-17T16:20:27.163Z,23.42
2022-08-17T16:22:54.427Z,23.32
2022-08-17T16:25:47.153Z,23.44
2022-08-17T16:28:16.187Z,23.50
2022-08-17T16:30:43.208Z,23.26
2022-08-17T16:33:15.047Z,23.25
2022-08-17T16:35:42.093Z,23.27
2022-08-17T16:38:09.494Z,23.21
2022-08-17T16:40:37.469Z,23.06
2022-08-17T16:43:10.321Z,23.06
2022-08-17T16:45:40.319Z,23.04
2022-08-17T16:48:08.436Z,23.09
2022-08-17T16:50:36.528Z,23.13
2022-08-17T16:53:10.670Z,23.30
2022-08-17T16:55:38.297Z,23.51
2022-08-17T16:58:06.352Z,23.48
2022-08-17T17:00:33.770Z,23.42
2022-08-17T17:03:28.042Z,23.32
2022-08-17T17:05:59.275Z,23.31
2022-08-17T17:08:44.578Z,23.19
2022-08-17T17:11:24.947Z,23.20
2022-08-17T17:13:59.638Z,23.23
2022-08-17T17:16:32.601Z,23.07
2022-08-17T17:19:14.892Z,22.66
2022-08-17T17:21:51.752Z,22.52
2022-08-17T17:24:36.850Z,22.61
2022-08-17T17:27:23.366Z,22.68
2022-08-17T17:30:09.441Z,22.49
2022-08-17T17:32:48.044Z,22.44
2022-08-17T17:35:25.549Z,22.37
2022-08-17T17:37:57.238Z,22.27
2022-08-17T17:40:32.066Z,22.23
2022-08-17T17:43:20.473Z,22.29
2022-08-17T17:45:53.673Z,22.32
2022-08-17T17:48:20.553Z,22.28
2022-08-17T17:51:35.158Z,22.38
2022-08-17T17:54:29.427Z,22.22
2022-08-17T17:57:01.885Z,21.76
2022-08-17T17:59:51.281Z,21.60
2022-08-17T18:02:47.342Z,21.43
2022-08-17T18:05:37.107Z,21.40
2022-08-17T18:08:32.250Z,20.83
2022-08-17T18:11:34.904Z,19.10
2022-08-17T18:14:15.010Z,18.64
2022-08-17T18:16:43.722Z,18.47
2022-08-17T18:19:19.121Z,18.59
2022-08-17T18:21:50.101Z,18.67
2022-08-17T18:24:33.603Z,18.79
2022-08-17T18:27:02.513Z,18.94
2022-08-17T18:29:44.169Z,18.80
2022-08-17T18:32:23.283Z,19.08
2022-08-17T18:34:55.050Z,18.59
2022-08-17T18:37:54.180Z,18.31
2022-08-17T18:40:20.683Z,18.14
2022-08-17T18:42:59.001Z,18.24
2022-08-17T18:45:43.913Z,18.31
2022-08-17T18:48:49.858Z,18.38
2022-08-17T18:51:40.996Z,18.52
2022-08-17T18:54:22.168Z,18.61
2022-08-17T18:57:07.823Z,18.42
2022-08-17T18:59:42.007Z,18.57
2022-08-17T19:02:21.603Z,18.63
2022-08-17T19:05:17.435Z,18.66
2022-08-17T19:07:46.886Z,18.89
2022-08-17T19:10:22.276Z,18.85
2022-08-17T19:13:01.119Z,18.96
2022-08-17T19:15:34.515Z,19.03
2022-08-17T19:18:13.315Z,19.04
2022-08-17T19:20:47.030Z,19.07
2022-08-17T19:23:30.888Z,19.20
2022-08-17T19:25:59.353Z,19.28
2022-08-17T19:28:58.054Z,19.17
2022-08-17T19:31:27.921Z,18.79
2022-08-17T19:33:56.372Z,18.79
2022-08-17T19:36:26.480Z,18.91
2022-08-17T19:39:09.275Z,18.92
2022-08-17T19:41:53.826Z,19.14
2022-08-17T19:44:32.623Z,19.26
2022-08-17T19:47:01.819Z,19.45
2022-08-17T19:49:48.412Z,19.42
2022-08-17T19:52:26.943Z,19.21
2022-08-17T19:55:08.574Z,19.22
2022-08-17T19:58:06.832Z,19.33
2022-08-17T20:00:41.846Z,19.34
2022-08-17T20:03:16.574Z,19.31
2022-08-17T20:06:14.811Z,19.23
2022-08-17T20:08:47.366Z,19.38
2022-08-17T20:11:48.762Z,19.21
2022-08-17T20:14:20.326Z,19.35
2022-08-17T20:16:46.962Z,19.34
2022-08-17T20:19:31.569Z,19.24
2022-08-17T20:22:23.271Z,19.24
2022-08-17T20:25:03.647Z,19.31
2022-08-17T20:27:53.218Z,19.36
2022-08-17T20:30:37.580Z,19.48
2022-08-17T20:33:08.247Z,19.47
2022-08-17T20:35:39.786Z,19.52
2022-08-17T20:38:12.888Z,19.47
2022-08-17T20:40:54.620Z,19.65
2022-08-17T20:43:34.741Z,19.64
2022-08-17T20:46:19.593Z,19.31
2022-08-17T20:48:52.034Z,19.39
2022-08-17T20:51:27.126Z,19.24
2022-08-17T20:53:53.592Z,19.20
2022-08-17T20:56:44.974Z,19.14
2022-08-17T20:59:20.580Z,19.20
2022-08-17T21:02:08.878Z,19.22
2022-08-17T21:04:44.631Z,19.32
2022-08-17T21:07:48.576Z,19.37
2022-08-17T21:10:17.990Z,19.26
2022-08-17T21:12:48.314Z,19.29
2022-08-17T21:15:37.765Z,19.29
2022-08-17T21:18:16.453Z,19.38
2022-08-17T21:21:00.453Z,19.21
2022-08-17T21:23:55.427Z,19.44
2022-08-17T21:26:50.538Z,19.54
2022-08-17T21:29:32.443Z,19.60
2022-08-17T21:32:03.338Z,19.54
2022-08-17T21:34:38.388Z,19.48
2022-08-17T21:37:45.199Z,19.26
2022-08-17T21:40:18.212Z,19.18
2022-08-17T21:42:53.835Z,19.23
2022-08-17T21:45:27.198Z,19.19
2022-08-17T21:48:27.416Z,19.01
2022-08-17T21:51:01.678Z,18.97
2022-08-17T21:53:38.852Z,18.86
2022-08-17T21:56:06.933Z,18.72
2022-08-17T21:58:40.115Z,18.69
2022-08-17T22:01:11.206Z,18.84
2022-08-17T22:03:38.622Z,18.90
2022-08-17T22:06:34.277Z,19.03
2022-08-17T22:09:41.436Z,18.90
2022-08-17T22:12:11.350Z,18.85
2022-08-17T22:14:52.533Z,18.71
2022-08-17T22:17:35.455Z,18.81
2022-08-17T22:20:11.474Z,18.79
2022-08-17T22:23:20.062Z,18.71
2022-08-17T22:26:09.677Z,18.69
2022-08-17T22:28:46.297Z,18.40
2022-08-17T22:31:34.657Z,18.30
2022-08-17T22:34:04.300Z,18.31
2022-08-17T22:36:30.907Z,18.24
2022-08-17T22:39:09.199Z,18.18
2022-08-17T22:41:50.675Z,18.20
2022-08-17T22:44:23.204Z,18.16
2022-08-17T22:46:52.433Z,18.18
2022-08-17T22:49:29.184Z,18.22
2022-08-17T22:52:01.648Z,18.14
2022-08-17T22:54:47.742Z,18.09
2022-08-17T22:57:34.092Z,18.17
2022-08-17T23:00:01.413Z,18.06
2022-08-17T23:02:34.267Z,18.15
2022-08-17T23:05:10.174Z,18.16
2022-08-17T23:07:36.910Z,18.28
2022-08-17T23:10:06.456Z,18.28
2022-08-17T23:12:38.867Z,18.15
2022-08-17T23:15:17.951Z,18.30
2022-08-17T23:17:45.502Z,18.43
2022-08-17T23:20:15.111Z,18.40
2022-08-17T23:22:51.302Z,18.42
2022-08-17T23:25:28.323Z,18.53
2022-08-17T23:27:57.389Z,18.59
2022-08-17T23:30:25.615Z,18.60
2022-08-17T23:32:54.309Z,18.60
2022-08-17T23:35:40.256Z,18.59
2022-08-17T23:38:12.129Z,18.59
2022-08-17T23:40:40.122Z,18.57
2022-08-17T23:43:23.512Z,18.65
2022-08-17T23:45:53.096Z,18.75
2022-08-17T23:48:28.490Z,18.52
2022-08-17T23:51:04.062Z,18.53
2022-08-17T23:53:34.590Z,18.68
2022-08-17T23:56:04.592Z,18.83
2022-08-17T23:58:38.824Z,18.84
